sensor_id;sensor_type;location;lat;lon;timestamp;pressure;altitude;pressure_sealevel;temperature;humidity
19447;BME280;9862;49.462;11.054;2023-02-26T00:01:58;97503.59;;;1.37;100.00
19447;BME280;9862;49.462;11.054;2023-02-26T00:04:26;97518.66;;;1.19;100.00
19447;BME280;9862;49.462;11.054;2023-02-26T00:06:53;97515.38;;;1.08;100.00
19447;BME280;9862;49.462;11.054;2023-02-26T00:09:21;97514.69;;;0.98;100.00
19447;BME280;9862;49.462;11.054;2023-02-26T00:11:48;97526.16;;;0.97;100.00
19447;BME280;9862;49.462;11.054;2023-02-26T00:14:16;97530.78;;;0.61;100.00
19447;BME280;9862;49.462;11.054;2023-02-26T00:16:44;97529.94;;;0.52;100.00
19447;BME280;9862;49.462;11.054;2023-02-26T00:19:13;97531.31;;;0.73;100.00
19447;BME280;9862;49.462;11.054;2023-02-26T00:21:40;97529.25;;;0.93;100.00
19447;BME280;9862;49.462;11.054;2023-02-26T00:24:07;97534.47;;;0.93;100.00
19447;BME280;9862;49.462;11.054;2023-02-26T00:26:35;97530.13;;;1.18;100.00
19447;BME280;9862;49.462;11.054;2023-02-26T00:29:03;97533.72;;;1.33;100.00
19447;BME280;9862;49.462;11.054;2023-02-26T00:31:30;97540.63;;;1.50;100.00
19447;BME280;9862;49.462;11.054;2023-02-26T00:33:57;97529.16;;;1.59;100.00
19447;BME280;9862;49.462;11.054;2023-02-26T00:36:32;97530.63;;;1.54;100.00
19447;BME280;9862;49.462;11.054;2023-02-26T00:39:06;97541.09;;;1.54;100.00
19447;BME280;9862;49.462;11.054;2023-02-26T00:41:39;97538.50;;;1.46;100.00
19447;BME280;9862;49.462;11.054;2023-02-26T00:44:06;97540.31;;;1.37;100.00
19447;BME280;9862;49.462;11.054;2023-02-26T00:46:39;97538.66;;;1.36;100.00
19447;BME280;9862;49.462;11.054;2023-02-26T00:49:15;97543.03;;;1.03;100.00
19447;BME280;9862;49.462;11.054;2023-02-26T00:51:47;97548.44;;;1.09;100.00
19447;BME280;9862;49.462;11.054;2023-02-26T00:54:17;97535.81;;;1.05;100.00
19447;BME280;9862;49.462;11.054;2023-02-26T00:56:47;97531.53;;;0.96;100.00
19447;BME280;9862;49.462;11.054;2023-02-26T00:59:13;97538.56;;;0.87;100.00
19447;BME280;9862;49.462;11.054;2023-02-26T01:01:40;97533.63;;;0.84;100.00
19447;BME280;9862;49.462;11.054;2023-02-26T01:04:08;97537.25;;;0.83;100.00
19447;BME280;9862;49.462;11.054;2023-02-26T01:06:37;97539.41;;;0.88;100.00
19447;BME280;9862;49.462;11.054;2023-02-26T01:09:12;97541.16;;;0.79;100.00
19447;BME280;9862;49.462;11.054;2023-02-26T01:11:41;97536.22;;;0.76;100.00
19447;BME280;9862;49.462;11.054;2023-02-26T01:14:09;97537.72;;;0.78;100.00
19447;BME280;9862;49.462;11.054;2023-02-26T01:16:42;97541.34;;;0.77;100.00
19447;BME280;9862;49.462;11.054;2023-02-26T01:19:17;97535.78;;;0.80;100.00
19447;BME280;9862;49.462;11.054;2023-02-26T01:21:48;97542.03;;;0.88;100.00
19447;BME280;9862;49.462;11.054;2023-02-26T01:24:18;97532.06;;;0.99;100.00
19447;BME280;9862;49.462;11.054;2023-02-26T01:26:47;97538.63;;;1.11;100.00
19447;BME280;9862;49.462;11.054;2023-02-26T01:29:16;97540.28;;;1.21;100.00
19447;BME280;9862;49.462;11.054;2023-02-26T01:31:48;97522.72;;;1.13;100.00
19447;BME280;9862;49.462;11.054;2023-02-26T01:34:18;97534.38;;;1.10;100.00
19447;BME280;9862;49.462;11.054;2023-02-26T01:36:52;97545.81;;;1.01;100.00
19447;BME280;9862;49.462;11.054;2023-02-26T01:39:27;97541.50;;;0.84;100.00
19447;BME280;9862;49.462;11.054;2023-02-26T01:41:57;97535.78;;;0.89;100.00
19447;BME280;9862;49.462;11.054;2023-02-26T01:44:31;97535.63;;;0.90;100.00
19447;BME280;9862;49.462;11.054;2023-02-26T01:47:11;97533.84;;;0.99;100.00
19447;BME280;9862;49.462;11.054;2023-02-26T01:49:41;97536.97;;;1.02;100.00
19447;BME280;9862;49.462;11.054;2023-02-26T01:55:08;97551.22;;;1.08;100.00
19447;BME280;9862;49.462;11.054;2023-02-26T01:57:35;97549.75;;;1.13;100.00
19447;BME280;9862;49.462;11.054;2023-02-26T02:00:04;97553.00;;;0.99;100.00
19447;BME280;9862;49.462;11.054;2023-02-26T02:02:31;97551.69;;;0.95;100.00
19447;BME280;9862;49.462;11.054;2023-02-26T02:05:02;97549.22;;;0.94;100.00
19447;BME280;9862;49.462;11.054;2023-02-26T02:07:29;97552.28;;;0.73;100.00
19447;BME280;9862;49.462;11.054;2023-02-26T02:09:56;97553.28;;;0.80;100.00
19447;BME280;9862;49.462;11.054;2023-02-26T02:12:30;97547.03;;;0.73;100.00
19447;BME280;9862;49.462;11.054;2023-02-26T02:15:08;97553.97;;;0.90;100.00
19447;BME280;9862;49.462;11.054;2023-02-26T02:17:40;97553.63;;;0.93;100.00
19447;BME280;9862;49.462;11.054;2023-02-26T02:20:25;97559.06;;;1.00;100.00
19447;BME280;9862;49.462;11.054;2023-02-26T02:23:09;97555.28;;;0.94;100.00
19447;BME280;9862;49.462;11.054;2023-02-26T02:25:50;97554.28;;;0.87;100.00
19447;BME280;9862;49.462;11.054;2023-02-26T02:28:32;97565.75;;;0.94;100.00
19447;BME280;9862;49.462;11.054;2023-02-26T02:31:06;97561.16;;;0.88;100.00
19447;BME280;9862;49.462;11.054;2023-02-26T02:33:41;97562.47;;;0.92;100.00
19447;BME280;9862;49.462;11.054;2023-02-26T02:36:12;97564.94;;;0.94;100.00
19447;BME280;9862;49.462;11.054;2023-02-26T02:38:45;97569.03;;;0.96;100.00
19447;BME280;9862;49.462;11.054;2023-02-26T02:41:16;97577.19;;;0.85;100.00
19447;BME280;9862;49.462;11.054;2023-02-26T02:43:44;97573.13;;;0.56;100.00
19447;BME280;9862;49.462;11.054;2023-02-26T02:46:17;97580.47;;;0.45;100.00
19447;BME280;9862;49.462;11.054;2023-02-26T02:48:48;97585.13;;;0.33;100.00
19447;BME280;9862;49.462;11.054;2023-02-26T02:51:22;97581.72;;;0.33;100.00
19447;BME280;9862;49.462;11.054;2023-02-26T02:53:53;97583.34;;;0.34;100.00
19447;BME280;9862;49.462;11.054;2023-02-26T02:56:24;97576.03;;;0.45;100.00
19447;BME280;9862;49.462;11.054;2023-02-26T02:58:56;97586.09;;;0.58;100.00
19447;BME280;9862;49.462;11.054;2023-02-26T03:01:26;97585.63;;;0.63;100.00
19447;BME280;9862;49.462;11.054;2023-02-26T03:03:57;97587.91;;;0.66;100.00
19447;BME280;9862;49.462;11.054;2023-02-26T03:06:25;97593.78;;;0.60;100.00
19447;BME280;9862;49.462;11.054;2023-02-26T03:08:53;97596.38;;;0.51;100.00
19447;BME280;9862;49.462;11.054;2023-02-26T03:11:21;97593.22;;;0.48;100.00
19447;BME280;9862;49.462;11.054;2023-02-26T03:13:49;97597.31;;;0.42;100.00
19447;BME280;9862;49.462;11.054;2023-02-26T03:16:41;97600.25;;;0.47;100.00
19447;BME280;9862;49.462;11.054;2023-02-26T03:19:18;97602.13;;;0.29;100.00
19447;BME280;9862;49.462;11.054;2023-02-26T03:21:58;97602.63;;;0.33;100.00
19447;BME280;9862;49.462;11.054;2023-02-26T03:24:30;97609.31;;;0.27;100.00
19447;BME280;9862;49.462;11.054;2023-02-26T03:27:01;97615.41;;;0.36;100.00
19447;BME280;9862;49.462;11.054;2023-02-26T03:29:33;97620.53;;;0.45;100.00
19447;BME280;9862;49.462;11.054;2023-02-26T03:32:07;97625.00;;;0.27;100.00
19447;BME280;9862;49.462;11.054;2023-02-26T03:34:42;97620.81;;;0.34;100.00
19447;BME280;9862;49.462;11.054;2023-02-26T03:37:15;97625.09;;;0.17;100.00
19447;BME280;9862;49.462;11.054;2023-02-26T03:39:47;97630.22;;;0.27;100.00
19447;BME280;9862;49.462;11.054;2023-02-26T03:42:20;97626.44;;;0.21;100.00
19447;BME280;9862;49.462;11.054;2023-02-26T03:44:51;97631.78;;;0.12;100.00
19447;BME280;9862;49.462;11.054;2023-02-26T03:47:22;97644.50;;;-0.11;100.00
19447;BME280;9862;49.462;11.054;2023-02-26T03:49:54;97636.50;;;-0.10;100.00
19447;BME280;9862;49.462;11.054;2023-02-26T03:52:24;97641.69;;;-0.18;100.00
19447;BME280;9862;49.462;11.054;2023-02-26T03:54:55;97650.03;;;-0.14;100.00
19447;BME280;9862;49.462;11.054;2023-02-26T03:57:23;97652.88;;;-0.25;100.00
19447;BME280;9862;49.462;11.054;2023-02-26T03:59:50;97642.50;;;-0.17;100.00
19447;BME280;9862;49.462;11.054;2023-02-26T04:02:19;97636.75;;;-0.21;100.00
19447;BME280;9862;49.462;11.054;2023-02-26T04:04:52;97650.78;;;-0.22;100.00
19447;BME280;9862;49.462;11.054;2023-02-26T04:07:19;97661.41;;;-0.06;100.00
19447;BME280;9862;49.462;11.054;2023-02-26T04:09:48;97658.84;;;0.03;100.00
19447;BME280;9862;49.462;11.054;2023-02-26T04:12:19;97663.19;;;0.12;100.00
19447;BME280;9862;49.462;11.054;2023-02-26T04:14:46;97664.06;;;0.20;100.00
19447;BME280;9862;49.462;11.054;2023-02-26T04:17:13;97662.53;;;0.18;100.00
19447;BME280;9862;49.462;11.054;2023-02-26T04:19:39;97660.00;;;0.26;100.00
19447;BME280;9862;49.462;11.054;2023-02-26T04:22:08;97670.91;;;0.39;100.00
19447;BME280;9862;49.462;11.054;2023-02-26T04:24:34;97666.50;;;0.40;100.00
19447;BME280;9862;49.462;11.054;2023-02-26T04:27:01;97666.22;;;0.51;100.00
19447;BME280;9862;49.462;11.054;2023-02-26T04:29:27;97671.59;;;0.75;100.00
19447;BME280;9862;49.462;11.054;2023-02-26T04:31:54;97673.44;;;0.83;100.00
19447;BME280;9862;49.462;11.054;2023-02-26T04:34:20;97677.16;;;1.06;100.00
19447;BME280;9862;49.462;11.054;2023-02-26T04:36:47;97667.34;;;1.08;100.00
19447;BME280;9862;49.462;11.054;2023-02-26T04:39:15;97679.09;;;1.04;100.00
19447;BME280;9862;49.462;11.054;2023-02-26T04:41:41;97688.34;;;0.82;100.00
19447;BME280;9862;49.462;11.054;2023-02-26T04:44:08;97681.09;;;0.76;100.00
19447;BME280;9862;49.462;11.054;2023-02-26T04:46:35;97689.88;;;0.67;100.00
19447;BME280;9862;49.462;11.054;2023-02-26T04:49:01;97688.28;;;0.74;100.00
19447;BME280;9862;49.462;11.054;2023-02-26T04:51:29;97689.56;;;0.70;100.00
19447;BME280;9862;49.462;11.054;2023-02-26T04:53:55;97703.22;;;0.82;100.00
19447;BME280;9862;49.462;11.054;2023-02-26T04:56:23;97701.56;;;1.15;100.00
19447;BME280;9862;49.462;11.054;2023-02-26T04:58:50;97702.69;;;1.47;100.00
19447;BME280;9862;49.462;11.054;2023-02-26T05:01:16;97706.50;;;1.68;100.00
19447;BME280;9862;49.462;11.054;2023-02-26T05:03:43;97716.81;;;1.62;100.00
19447;BME280;9862;49.462;11.054;2023-02-26T05:06:10;97706.56;;;1.26;100.00
19447;BME280;9862;49.462;11.054;2023-02-26T05:08:36;97719.09;;;1.14;100.00
19447;BME280;9862;49.462;11.054;2023-02-26T05:11:06;97720.63;;;0.91;100.00
19447;BME280;9862;49.462;11.054;2023-02-26T05:13:34;97726.31;;;0.86;100.00
19447;BME280;9862;49.462;11.054;2023-02-26T05:16:00;97731.53;;;0.78;100.00
19447;BME280;9862;49.462;11.054;2023-02-26T05:18:27;97730.44;;;0.89;100.00
19447;BME280;9862;49.462;11.054;2023-02-26T05:20:54;97737.34;;;0.90;100.00
19447;BME280;9862;49.462;11.054;2023-02-26T05:23:21;97737.53;;;0.97;100.00
19447;BME280;9862;49.462;11.054;2023-02-26T05:25:48;97731.03;;;1.09;100.00
19447;BME280;9862;49.462;11.054;2023-02-26T05:28:15;97729.47;;;1.24;100.00
19447;BME280;9862;49.462;11.054;2023-02-26T05:30:43;97735.84;;;1.22;100.00
19447;BME280;9862;49.462;11.054;2023-02-26T05:33:09;97738.59;;;1.12;100.00
19447;BME280;9862;49.462;11.054;2023-02-26T05:35:36;97744.16;;;1.09;100.00
19447;BME280;9862;49.462;11.054;2023-02-26T05:38:03;97740.72;;;1.08;100.00
19447;BME280;9862;49.462;11.054;2023-02-26T05:40:29;97744.59;;;1.04;100.00
19447;BME280;9862;49.462;11.054;2023-02-26T05:42:56;97746.56;;;1.02;100.00
19447;BME280;9862;49.462;11.054;2023-02-26T05:45:23;97743.28;;;1.00;100.00
19447;BME280;9862;49.462;11.054;2023-02-26T05:47:51;97743.59;;;0.97;100.00
19447;BME280;9862;49.462;11.054;2023-02-26T05:50:17;97747.91;;;1.06;100.00
19447;BME280;9862;49.462;11.054;2023-02-26T05:52:44;97754.47;;;1.10;100.00
19447;BME280;9862;49.462;11.054;2023-02-26T05:55:11;97754.81;;;1.15;100.00
19447;BME280;9862;49.462;11.054;2023-02-26T05:57:38;97748.53;;;1.00;100.00
19447;BME280;9862;49.462;11.054;2023-02-26T06:00:06;97764.59;;;0.79;100.00
19447;BME280;9862;49.462;11.054;2023-02-26T06:02:34;97760.03;;;0.81;100.00
19447;BME280;9862;49.462;11.054;2023-02-26T06:05:02;97764.75;;;0.78;100.00
19447;BME280;9862;49.462;11.054;2023-02-26T06:07:29;97775.25;;;0.78;100.00
19447;BME280;9862;49.462;11.054;2023-02-26T06:09:55;97771.63;;;0.79;100.00
19447;BME280;9862;49.462;11.054;2023-02-26T06:12:22;97770.69;;;0.62;100.00
19447;BME280;9862;49.462;11.054;2023-02-26T06:14:48;97769.06;;;0.61;100.00
19447;BME280;9862;49.462;11.054;2023-02-26T06:17:15;97770.03;;;0.60;100.00
19447;BME280;9862;49.462;11.054;2023-02-26T06:19:41;97790.09;;;0.51;100.00
19447;BME280;9862;49.462;11.054;2023-02-26T06:22:10;97794.13;;;0.28;100.00
19447;BME280;9862;49.462;11.054;2023-02-26T06:24:37;97791.50;;;0.28;100.00
19447;BME280;9862;49.462;11.054;2023-02-26T06:27:03;97799.00;;;0.23;100.00
19447;BME280;9862;49.462;11.054;2023-02-26T06:29:30;97793.59;;;0.24;100.00
19447;BME280;9862;49.462;11.054;2023-02-26T06:31:56;97794.75;;;0.40;100.00
19447;BME280;9862;49.462;11.054;2023-02-26T06:34:23;97800.25;;;0.54;100.00
19447;BME280;9862;49.462;11.054;2023-02-26T06:36:49;97804.50;;;0.55;100.00
19447;BME280;9862;49.462;11.054;2023-02-26T06:39:17;97803.69;;;0.37;100.00
19447;BME280;9862;49.462;11.054;2023-02-26T06:41:44;97807.00;;;0.39;100.00
19447;BME280;9862;49.462;11.054;2023-02-26T06:44:11;97819.31;;;0.47;100.00
19447;BME280;9862;49.462;11.054;2023-02-26T06:46:37;97823.97;;;0.35;100.00
19447;BME280;9862;49.462;11.054;2023-02-26T06:49:04;97826.28;;;0.38;100.00
19447;BME280;9862;49.462;11.054;2023-02-26T06:51:31;97823.06;;;0.44;100.00
19447;BME280;9862;49.462;11.054;2023-02-26T06:53:58;97841.38;;;0.44;100.00
19447;BME280;9862;49.462;11.054;2023-02-26T06:56:26;97840.81;;;0.50;100.00
19447;BME280;9862;49.462;11.054;2023-02-26T06:58:52;97842.06;;;0.46;100.00
19447;BME280;9862;49.462;11.054;2023-02-26T07:01:19;97850.81;;;0.37;100.00
19447;BME280;9862;49.462;11.054;2023-02-26T07:03:46;97853.50;;;0.45;100.00
19447;BME280;9862;49.462;11.054;2023-02-26T07:06:12;97857.19;;;0.70;100.00
19447;BME280;9862;49.462;11.054;2023-02-26T07:08:39;97864.06;;;0.53;100.00
19447;BME280;9862;49.462;11.054;2023-02-26T07:11:05;97873.84;;;0.51;100.00
19447;BME280;9862;49.462;11.054;2023-02-26T07:13:34;97880.59;;;0.54;100.00
19447;BME280;9862;49.462;11.054;2023-02-26T07:16:01;97884.09;;;0.63;100.00
19447;BME280;9862;49.462;11.054;2023-02-26T07:18:27;97885.38;;;0.76;100.00
19447;BME280;9862;49.462;11.054;2023-02-26T07:20:54;97881.91;;;0.76;100.00
19447;BME280;9862;49.462;11.054;2023-02-26T07:23:20;97878.88;;;0.80;100.00
19447;BME280;9862;49.462;11.054;2023-02-26T07:25:48;97882.66;;;0.86;100.00
19447;BME280;9862;49.462;11.054;2023-02-26T07:28:14;97887.22;;;0.84;100.00
19447;BME280;9862;49.462;11.054;2023-02-26T07:30:42;97902.75;;;0.60;100.00
19447;BME280;9862;49.462;11.054;2023-02-26T07:33:09;97911.63;;;0.67;100.00
19447;BME280;9862;49.462;11.054;2023-02-26T07:35:36;97906.34;;;0.59;100.00
19447;BME280;9862;49.462;11.054;2023-02-26T07:38:02;97901.22;;;0.57;100.00
19447;BME280;9862;49.462;11.054;2023-02-26T07:40:29;97909.53;;;0.52;100.00
19447;BME280;9862;49.462;11.054;2023-02-26T07:42:55;97912.59;;;0.48;100.00
19447;BME280;9862;49.462;11.054;2023-02-26T07:45:22;97922.03;;;0.59;100.00
19447;BME280;9862;49.462;11.054;2023-02-26T07:47:51;97917.47;;;0.61;100.00
19447;BME280;9862;49.462;11.054;2023-02-26T07:50:19;97923.69;;;0.60;100.00
19447;BME280;9862;49.462;11.054;2023-02-26T07:52:45;97923.16;;;0.56;100.00
19447;BME280;9862;49.462;11.054;2023-02-26T07:55:12;97926.59;;;0.56;100.00
19447;BME280;9862;49.462;11.054;2023-02-26T07:57:39;97933.03;;;0.62;100.00
19447;BME280;9862;49.462;11.054;2023-02-26T08:00:06;97934.69;;;0.63;100.00
19447;BME280;9862;49.462;11.054;2023-02-26T08:02:33;97939.84;;;0.73;100.00
19447;BME280;9862;49.462;11.054;2023-02-26T08:05:01;97931.84;;;0.92;100.00
19447;BME280;9862;49.462;11.054;2023-02-26T08:07:28;97940.69;;;0.91;100.00
19447;BME280;9862;49.462;11.054;2023-02-26T08:09:55;97942.69;;;0.62;100.00
19447;BME280;9862;49.462;11.054;2023-02-26T08:12:21;97946.31;;;0.78;100.00
19447;BME280;9862;49.462;11.054;2023-02-26T08:14:48;97947.03;;;0.71;100.00
19447;BME280;9862;49.462;11.054;2023-02-26T08:17:15;97957.22;;;0.74;100.00
19447;BME280;9862;49.462;11.054;2023-02-26T08:19:41;97958.84;;;0.75;100.00
19447;BME280;9862;49.462;11.054;2023-02-26T08:22:10;97954.81;;;0.63;100.00
19447;BME280;9862;49.462;11.054;2023-02-26T08:24:36;97968.34;;;0.58;100.00
19447;BME280;9862;49.462;11.054;2023-02-26T08:27:03;97969.94;;;0.69;100.00
19447;BME280;9862;49.462;11.054;2023-02-26T08:29:30;97964.38;;;0.72;100.00
19447;BME280;9862;49.462;11.054;2023-02-26T08:31:56;97970.97;;;0.58;100.00
19447;BME280;9862;49.462;11.054;2023-02-26T08:34:23;97964.38;;;0.72;100.00
19447;BME280;9862;49.462;11.054;2023-02-26T08:36:50;97961.72;;;0.81;100.00
19447;BME280;9862;49.462;11.054;2023-02-26T08:39:18;97968.66;;;0.91;100.00
19447;BME280;9862;49.462;11.054;2023-02-26T08:41:45;97962.16;;;0.95;100.00
19447;BME280;9862;49.462;11.054;2023-02-26T08:44:11;97973.84;;;1.00;100.00
19447;BME280;9862;49.462;11.054;2023-02-26T08:46:38;97977.78;;;1.04;100.00
19447;BME280;9862;49.462;11.054;2023-02-26T08:49:04;97981.56;;;1.20;100.00
19447;BME280;9862;49.462;11.054;2023-02-26T08:51:31;97984.91;;;1.30;100.00
19447;BME280;9862;49.462;11.054;2023-02-26T08:53:58;97989.31;;;1.47;100.00
19447;BME280;9862;49.462;11.054;2023-02-26T08:56:26;97991.75;;;1.66;100.00
19447;BME280;9862;49.462;11.054;2023-02-26T08:58:52;98006.31;;;1.87;100.00
19447;BME280;9862;49.462;11.054;2023-02-26T09:01:19;98001.19;;;2.11;100.00
19447;BME280;9862;49.462;11.054;2023-02-26T09:03:45;98007.19;;;2.29;100.00
19447;BME280;9862;49.462;11.054;2023-02-26T09:06:12;98007.84;;;2.32;100.00
19447;BME280;9862;49.462;11.054;2023-02-26T09:08:39;98004.34;;;2.49;100.00
19447;BME280;9862;49.462;11.054;2023-02-26T09:11:06;98011.75;;;2.53;100.00
19447;BME280;9862;49.462;11.054;2023-02-26T09:13:33;98015.06;;;2.64;100.00
19447;BME280;9862;49.462;11.054;2023-02-26T09:16:00;98023.78;;;2.64;100.00
19447;BME280;9862;49.462;11.054;2023-02-26T09:18:27;98018.19;;;2.67;100.00
19447;BME280;9862;49.462;11.054;2023-02-26T09:20:54;98022.28;;;2.62;100.00
19447;BME280;9862;49.462;11.054;2023-02-26T09:23:21;98023.63;;;2.66;100.00
19447;BME280;9862;49.462;11.054;2023-02-26T09:25:51;98024.09;;;2.61;100.00
19447;BME280;9862;49.462;11.054;2023-02-26T09:28:19;98031.03;;;2.70;100.00
19447;BME280;9862;49.462;11.054;2023-02-26T09:30:50;98025.97;;;2.85;100.00
19447;BME280;9862;49.462;11.054;2023-02-26T09:33:17;98035.03;;;2.91;100.00
19447;BME280;9862;49.462;11.054;2023-02-26T09:35:43;98030.09;;;2.96;100.00
19447;BME280;9862;49.462;11.054;2023-02-26T09:38:13;98033.91;;;3.01;100.00
19447;BME280;9862;49.462;11.054;2023-02-26T09:40:43;98040.69;;;3.20;100.00
19447;BME280;9862;49.462;11.054;2023-02-26T09:46:35;98042.38;;;3.70;100.00
19447;BME280;9862;49.462;11.054;2023-02-26T09:49:13;98056.03;;;3.49;100.00
19447;BME280;9862;49.462;11.054;2023-02-26T09:51:44;98059.13;;;3.44;100.00
19447;BME280;9862;49.462;11.054;2023-02-26T09:54:16;98059.47;;;3.41;100.00
19447;BME280;9862;49.462;11.054;2023-02-26T09:56:43;98069.63;;;3.28;100.00
19447;BME280;9862;49.462;11.054;2023-02-26T09:59:10;98066.16;;;3.20;100.00
19447;BME280;9862;49.462;11.054;2023-02-26T10:01:41;98071.25;;;3.21;100.00
19447;BME280;9862;49.462;11.054;2023-02-26T10:04:15;98067.00;;;3.20;100.00
19447;BME280;9862;49.462;11.054;2023-02-26T10:06:52;98071.59;;;3.34;100.00
19447;BME280;9862;49.462;11.054;2023-02-26T10:09:29;98081.78;;;3.37;100.00
19447;BME280;9862;49.462;11.054;2023-02-26T10:12:01;98082.81;;;3.44;100.00
19447;BME280;9862;49.462;11.054;2023-02-26T10:14:33;98079.50;;;3.42;100.00
19447;BME280;9862;49.462;11.054;2023-02-26T10:17:06;98071.47;;;3.52;100.00
19447;BME280;9862;49.462;11.054;2023-02-26T10:19:37;98079.22;;;3.62;100.00
19447;BME280;9862;49.462;11.054;2023-02-26T10:22:14;98091.69;;;3.52;100.00
19447;BME280;9862;49.462;11.054;2023-02-26T10:24:45;98086.41;;;3.35;100.00
19447;BME280;9862;49.462;11.054;2023-02-26T10:27:17;98087.06;;;3.29;100.00
19447;BME280;9862;49.462;11.054;2023-02-26T10:29:50;98092.94;;;3.23;100.00
19447;BME280;9862;49.462;11.054;2023-02-26T10:32:24;98083.25;;;3.24;100.00
19447;BME280;9862;49.462;11.054;2023-02-26T10:34:56;98092.59;;;3.18;100.00
19447;BME280;9862;49.462;11.054;2023-02-26T10:37:33;98103.81;;;3.20;100.00
19447;BME280;9862;49.462;11.054;2023-02-26T10:40:12;98101.69;;;3.32;100.00
19447;BME280;9862;49.462;11.054;2023-02-26T10:42:42;98107.28;;;3.37;100.00
19447;BME280;9862;49.462;11.054;2023-02-26T10:45:21;98108.63;;;3.49;100.00
19447;BME280;9862;49.462;11.054;2023-02-26T10:48:00;98108.50;;;3.59;100.00
19447;BME280;9862;49.462;11.054;2023-02-26T10:50:30;98096.63;;;3.63;100.00
19447;BME280;9862;49.462;11.054;2023-02-26T10:52:57;98100.44;;;3.68;100.00
19447;BME280;9862;49.462;11.054;2023-02-26T10:55:37;98106.38;;;3.79;100.00
19447;BME280;9862;49.462;11.054;2023-02-26T10:58:08;98103.41;;;3.82;100.00
19447;BME280;9862;49.462;11.054;2023-02-26T11:00:38;98102.75;;;3.88;100.00
19447;BME280;9862;49.462;11.054;2023-02-26T11:03:09;98098.63;;;4.01;100.00
19447;BME280;9862;49.462;11.054;2023-02-26T11:05:38;98111.13;;;3.99;100.00
19447;BME280;9862;49.462;11.054;2023-02-26T11:08:11;98108.97;;;3.95;100.00
19447;BME280;9862;49.462;11.054;2023-02-26T11:10:41;98110.63;;;3.63;100.00
19447;BME280;9862;49.462;11.054;2023-02-26T11:13:10;98104.19;;;3.50;100.00
19447;BME280;9862;49.462;11.054;2023-02-26T11:15:37;98098.44;;;3.38;100.00
19447;BME280;9862;49.462;11.054;2023-02-26T11:18:04;98096.59;;;3.30;100.00
19447;BME280;9862;49.462;11.054;2023-02-26T11:20:38;98109.75;;;3.47;100.00
19447;BME280;9862;49.462;11.054;2023-02-26T11:23:09;98103.69;;;3.38;100.00
19447;BME280;9862;49.462;11.054;2023-02-26T11:25:37;98111.38;;;3.31;100.00
19447;BME280;9862;49.462;11.054;2023-02-26T11:28:06;98109.59;;;3.40;100.00
19447;BME280;9862;49.462;11.054;2023-02-26T11:30:43;98111.13;;;3.59;100.00
19447;BME280;9862;49.462;11.054;2023-02-26T11:33:17;98107.50;;;3.76;100.00
19447;BME280;9862;49.462;11.054;2023-02-26T11:35:45;98104.22;;;3.90;100.00
19447;BME280;9862;49.462;11.054;2023-02-26T11:38:17;98096.00;;;4.01;100.00
19447;BME280;9862;49.462;11.054;2023-02-26T11:40:47;98081.00;;;4.02;100.00
19447;BME280;9862;49.462;11.054;2023-02-26T11:43:16;98091.88;;;3.83;100.00
19447;BME280;9862;49.462;11.054;2023-02-26T11:45:46;98092.72;;;3.91;100.00
19447;BME280;9862;49.462;11.054;2023-02-26T11:48:16;98099.28;;;3.79;100.00
19447;BME280;9862;49.462;11.054;2023-02-26T11:50:48;98088.25;;;3.92;100.00
19447;BME280;9862;49.462;11.054;2023-02-26T11:53:19;98083.00;;;4.08;100.00
19447;BME280;9862;49.462;11.054;2023-02-26T11:55:51;98086.75;;;4.22;100.00
19447;BME280;9862;49.462;11.054;2023-02-26T11:58:20;98087.09;;;4.19;100.00
19447;BME280;9862;49.462;11.054;2023-02-26T12:00:47;98082.47;;;4.21;100.00
19447;BME280;9862;49.462;11.054;2023-02-26T12:03:16;98085.94;;;4.05;100.00
19447;BME280;9862;49.462;11.054;2023-02-26T12:05:43;98092.38;;;4.11;100.00
19447;BME280;9862;49.462;11.054;2023-02-26T12:08:16;98076.03;;;4.23;100.00
19447;BME280;9862;49.462;11.054;2023-02-26T12:11:06;98080.81;;;4.36;100.00
19447;BME280;9862;49.462;11.054;2023-02-26T12:13:40;98078.84;;;4.14;100.00
19447;BME280;9862;49.462;11.054;2023-02-26T12:16:16;98075.41;;;4.13;100.00
19447;BME280;9862;49.462;11.054;2023-02-26T12:18:54;98071.47;;;4.17;100.00
19447;BME280;9862;49.462;11.054;2023-02-26T12:21:40;98092.03;;;4.14;100.00
19447;BME280;9862;49.462;11.054;2023-02-26T12:24:25;98078.53;;;4.25;100.00
19447;BME280;9862;49.462;11.054;2023-02-26T12:27:02;98080.19;;;4.26;97.34
19447;BME280;9862;49.462;11.054;2023-02-26T12:29:39;98084.47;;;4.19;95.33
19447;BME280;9862;49.462;11.054;2023-02-26T12:35:30;98080.09;;;4.98;100.00
19447;BME280;9862;49.462;11.054;2023-02-26T12:38:07;98081.31;;;4.87;100.00
19447;BME280;9862;49.462;11.054;2023-02-26T12:41:05;98095.13;;;4.42;100.00
19447;BME280;9862;49.462;11.054;2023-02-26T12:43:40;98088.75;;;4.20;100.00
19447;BME280;9862;49.462;11.054;2023-02-26T12:46:18;98091.38;;;3.71;100.00
19447;BME280;9862;49.462;11.054;2023-02-26T12:49:05;98111.94;;;3.59;100.00
19447;BME280;9862;49.462;11.054;2023-02-26T12:51:44;98102.22;;;3.52;99.33
19447;BME280;9862;49.462;11.054;2023-02-26T12:54:29;98103.22;;;3.59;100.00
19447;BME280;9862;49.462;11.054;2023-02-26T12:57:13;98107.66;;;3.50;97.06
19447;BME280;9862;49.462;11.054;2023-02-26T12:59:55;98107.66;;;3.58;97.30
19447;BME280;9862;49.462;11.054;2023-02-26T13:02:48;98107.81;;;3.57;97.08
19447;BME280;9862;49.462;11.054;2023-02-26T13:05:36;98099.41;;;3.53;96.82
19447;BME280;9862;49.462;11.054;2023-02-26T13:08:11;98109.78;;;3.55;98.79
19447;BME280;9862;49.462;11.054;2023-02-26T13:10:50;98102.91;;;3.78;100.00
19447;BME280;9862;49.462;11.054;2023-02-26T13:13:35;98113.25;;;4.04;100.00
19447;BME280;9862;49.462;11.054;2023-02-26T13:16:11;98106.19;;;4.29;97.09
19447;BME280;9862;49.462;11.054;2023-02-26T13:18:48;98104.69;;;4.35;90.40
19447;BME280;9862;49.462;11.054;2023-02-26T13:21:19;98104.00;;;4.41;90.26
19447;BME280;9862;49.462;11.054;2023-02-26T13:23:50;98104.66;;;4.51;86.55
19447;BME280;9862;49.462;11.054;2023-02-26T13:26:19;98101.19;;;4.42;84.33